sensor_id;sensor_type;location;lat;lon;timestamp;P1;durP1;ratioP1;P2;durP2;ratioP2
27893;SDS011;15240;50.812;4.792;2022-07-29T00:02:26;7.20;;;1.90;;
27893;SDS011;15240;50.812;4.792;2022-07-29T00:04:52;4.37;;;1.60;;
27893;SDS011;15240;50.812;4.792;2022-07-29T00:07:18;5.60;;;1.87;;
27893;SDS011;15240;50.812;4.792;2022-07-29T00:09:44;5.40;;;2.13;;
27893;SDS011;15240;50.812;4.792;2022-07-29T00:12:10;4.57;;;1.83;;
27893;SDS011;15240;50.812;4.792;2022-07-29T00:14:36;5.00;;;2.30;;
27893;SDS011;15240;50.812;4.792;2022-07-29T00:17:02;4.57;;;1.83;;
27893;SDS011;15240;50.812;4.792;2022-07-29T00:19:28;4.80;;;1.90;;
27893;SDS011;15240;50.812;4.792;2022-07-29T00:21:54;5.47;;;2.30;;
27893;SDS011;15240;50.812;4.792;2022-07-29T00:24:20;5.60;;;2.03;;
27893;SDS011;15240;50.812;4.792;2022-07-29T00:26:46;6.97;;;2.47;;
27893;SDS011;15240;50.812;4.792;2022-07-29T00:29:12;8.37;;;2.23;;
27893;SDS011;15240;50.812;4.792;2022-07-29T00:31:38;5.50;;;2.10;;
27893;SDS011;15240;50.812;4.792;2022-07-29T00:34:04;7.43;;;2.23;;
27893;SDS011;15240;50.812;4.792;2022-07-29T00:36:31;3.20;;;1.77;;
27893;SDS011;15240;50.812;4.792;2022-07-29T00:38:57;7.10;;;2.20;;
27893;SDS011;15240;50.812;4.792;2022-07-29T00:41:23;4.77;;;2.00;;
27893;SDS011;15240;50.812;4.792;2022-07-29T00:43:49;8.97;;;2.10;;
27893;SDS011;15240;50.812;4.792;2022-07-29T00:46:15;5.03;;;2.00;;
27893;SDS011;15240;50.812;4.792;2022-07-29T00:48:41;7.43;;;2.13;;
27893;SDS011;15240;50.812;4.792;2022-07-29T00:51:07;7.07;;;2.10;;
27893;SDS011;15240;50.812;4.792;2022-07-29T00:53:35;9.80;;;2.10;;
27893;SDS011;15240;50.812;4.792;2022-07-29T00:56:01;5.77;;;2.13;;
27893;SDS011;15240;50.812;4.792;2022-07-29T00:58:27;8.93;;;2.13;;
27893;SDS011;15240;50.812;4.792;2022-07-29T01:00:53;5.53;;;2.70;;
27893;SDS011;15240;50.812;4.792;2022-07-29T01:03:19;6.17;;;2.10;;
27893;SDS011;15240;50.812;4.792;2022-07-29T01:05:45;8.73;;;1.70;;
27893;SDS011;15240;50.812;4.792;2022-07-29T01:08:13;4.90;;;2.10;;
27893;SDS011;15240;50.812;4.792;2022-07-29T01:10:39;6.23;;;2.20;;
27893;SDS011;15240;50.812;4.792;2022-07-29T01:13:06;5.97;;;2.10;;
27893;SDS011;15240;50.812;4.792;2022-07-29T01:15:33;6.03;;;2.20;;
27893;SDS011;15240;50.812;4.792;2022-07-29T01:18:46;3.23;;;1.87;;
27893;SDS011;15240;50.812;4.792;2022-07-29T01:21:03;4.83;;;2.10;;
27893;SDS011;15240;50.812;4.792;2022-07-29T01:31:11;9.00;;;2.53;;
27893;SDS011;15240;50.812;4.792;2022-07-29T01:33:41;4.83;;;1.80;;
27893;SDS011;15240;50.812;4.792;2022-07-29T01:36:21;4.20;;;2.00;;
27893;SDS011;15240;50.812;4.792;2022-07-29T01:38:52;5.70;;;2.17;;
27893;SDS011;15240;50.812;4.792;2022-07-29T01:41:19;5.13;;;2.30;;
27893;SDS011;15240;50.812;4.792;2022-07-29T01:43:50;4.73;;;2.30;;
27893;SDS011;15240;50.812;4.792;2022-07-29T01:46:19;6.90;;;2.40;;
27893;SDS011;15240;50.812;4.792;2022-07-29T01:48:47;4.50;;;2.40;;
27893;SDS011;15240;50.812;4.792;2022-07-29T01:51:19;3.40;;;2.27;;
27893;SDS011;15240;50.812;4.792;2022-07-29T01:53:47;7.13;;;2.23;;
27893;SDS011;15240;50.812;4.792;2022-07-29T01:56:16;4.90;;;2.40;;
27893;SDS011;15240;50.812;4.792;2022-07-29T01:58:44;4.07;;;2.27;;
27893;SDS011;15240;50.812;4.792;2022-07-29T02:01:11;5.77;;;2.20;;
27893;SDS011;15240;50.812;4.792;2022-07-29T02:03:38;8.60;;;2.73;;
27893;SDS011;15240;50.812;4.792;2022-07-29T02:06:04;7.63;;;2.50;;
27893;SDS011;15240;50.812;4.792;2022-07-29T02:08:31;4.43;;;2.43;;
27893;SDS011;15240;50.812;4.792;2022-07-29T02:10:59;7.17;;;2.40;;
27893;SDS011;15240;50.812;4.792;2022-07-29T02:13:25;7.47;;;2.47;;
27893;SDS011;15240;50.812;4.792;2022-07-29T02:15:52;7.20;;;2.53;;
27893;SDS011;15240;50.812;4.792;2022-07-29T02:18:20;5.40;;;2.53;;
27893;SDS011;15240;50.812;4.792;2022-07-29T02:20:49;6.27;;;2.30;;
27893;SDS011;15240;50.812;4.792;2022-07-29T02:23:17;5.50;;;2.40;;
27893;SDS011;15240;50.812;4.792;2022-07-29T02:25:44;6.70;;;2.60;;
27893;SDS011;15240;50.812;4.792;2022-07-29T02:28:12;5.17;;;2.60;;
27893;SDS011;15240;50.812;4.792;2022-07-29T02:30:39;7.50;;;2.77;;
27893;SDS011;15240;50.812;4.792;2022-07-29T02:33:06;7.20;;;2.80;;
27893;SDS011;15240;50.812;4.792;2022-07-29T02:35:33;7.17;;;2.63;;
27893;SDS011;15240;50.812;4.792;2022-07-29T02:37:59;9.87;;;2.63;;
27893;SDS011;15240;50.812;4.792;2022-07-29T02:40:44;4.00;;;2.20;;
27893;SDS011;15240;50.812;4.792;2022-07-29T02:43:11;5.03;;;2.87;;
27893;SDS011;15240;50.812;4.792;2022-07-29T02:45:37;4.33;;;2.40;;
27893;SDS011;15240;50.812;4.792;2022-07-29T02:48:05;5.83;;;2.67;;
27893;SDS011;15240;50.812;4.792;2022-07-29T02:50:33;7.47;;;2.77;;
27893;SDS011;15240;50.812;4.792;2022-07-29T02:53:01;8.87;;;3.07;;
27893;SDS011;15240;50.812;4.792;2022-07-29T02:55:39;6.00;;;2.63;;
27893;SDS011;15240;50.812;4.792;2022-07-29T02:58:13;5.10;;;2.80;;
27893;SDS011;15240;50.812;4.792;2022-07-29T03:00:41;8.07;;;3.07;;
27893;SDS011;15240;50.812;4.792;2022-07-29T03:03:08;7.37;;;3.10;;
27893;SDS011;15240;50.812;4.792;2022-07-29T03:05:36;6.17;;;2.87;;
27893;SDS011;15240;50.812;4.792;2022-07-29T03:08:04;7.07;;;3.20;;
27893;SDS011;15240;50.812;4.792;2022-07-29T03:10:30;6.83;;;2.83;;
27893;SDS011;15240;50.812;4.792;2022-07-29T03:12:57;8.70;;;3.37;;
27893;SDS011;15240;50.812;4.792;2022-07-29T03:15:23;7.17;;;3.27;;
27893;SDS011;15240;50.812;4.792;2022-07-29T03:17:50;7.07;;;3.43;;
27893;SDS011;15240;50.812;4.792;2022-07-29T03:20:16;7.07;;;3.20;;
27893;SDS011;15240;50.812;4.792;2022-07-29T03:22:43;6.37;;;3.33;;
27893;SDS011;15240;50.812;4.792;2022-07-29T03:25:12;6.50;;;3.17;;
27893;SDS011;15240;50.812;4.792;2022-07-29T03:27:38;6.57;;;3.63;;
27893;SDS011;15240;50.812;4.792;2022-07-29T03:30:04;6.83;;;3.77;;
27893;SDS011;15240;50.812;4.792;2022-07-29T03:32:31;9.27;;;3.67;;
27893;SDS011;15240;50.812;4.792;2022-07-29T03:34:57;8.57;;;3.10;;
27893;SDS011;15240;50.812;4.792;2022-07-29T03:37:23;7.57;;;3.60;;
27893;SDS011;15240;50.812;4.792;2022-07-29T03:39:49;8.07;;;3.93;;
27893;SDS011;15240;50.812;4.792;2022-07-29T03:42:15;12.17;;;4.40;;
27893;SDS011;15240;50.812;4.792;2022-07-29T03:44:42;11.77;;;3.73;;
27893;SDS011;15240;50.812;4.792;2022-07-29T03:47:09;8.17;;;3.63;;
27893;SDS011;15240;50.812;4.792;2022-07-29T03:49:36;6.23;;;3.80;;
27893;SDS011;15240;50.812;4.792;2022-07-29T03:52:03;7.87;;;4.10;;
27893;SDS011;15240;50.812;4.792;2022-07-29T03:54:29;7.23;;;4.10;;
27893;SDS011;15240;50.812;4.792;2022-07-29T03:56:55;8.53;;;3.90;;
27893;SDS011;15240;50.812;4.792;2022-07-29T03:59:23;7.83;;;4.20;;
27893;SDS011;15240;50.812;4.792;2022-07-29T04:01:50;6.20;;;4.13;;
27893;SDS011;15240;50.812;4.792;2022-07-29T04:04:16;9.80;;;4.03;;
27893;SDS011;15240;50.812;4.792;2022-07-29T04:06:42;7.27;;;4.10;;
27893;SDS011;15240;50.812;4.792;2022-07-29T04:09:09;7.50;;;4.07;;
27893;SDS011;15240;50.812;4.792;2022-07-29T04:11:36;7.13;;;3.67;;
27893;SDS011;15240;50.812;4.792;2022-07-29T04:14:02;8.33;;;3.90;;
27893;SDS011;15240;50.812;4.792;2022-07-29T04:16:28;8.67;;;3.97;;
27893;SDS011;15240;50.812;4.792;2022-07-29T04:18:54;6.73;;;3.63;;
27893;SDS011;15240;50.812;4.792;2022-07-29T04:21:20;6.87;;;3.80;;
27893;SDS011;15240;50.812;4.792;2022-07-29T04:23:46;9.30;;;3.90;;
27893;SDS011;15240;50.812;4.792;2022-07-29T04:26:15;7.77;;;3.80;;
27893;SDS011;15240;50.812;4.792;2022-07-29T04:28:41;8.97;;;4.00;;
27893;SDS011;15240;50.812;4.792;2022-07-29T04:31:08;6.70;;;4.30;;
27893;SDS011;15240;50.812;4.792;2022-07-29T04:33:34;8.20;;;4.00;;
27893;SDS011;15240;50.812;4.792;2022-07-29T04:36:00;7.23;;;3.90;;
27893;SDS011;15240;50.812;4.792;2022-07-29T04:38:26;8.50;;;4.07;;
27893;SDS011;15240;50.812;4.792;2022-07-29T04:40:52;10.63;;;4.10;;
27893;SDS011;15240;50.812;4.792;2022-07-29T04:43:18;7.10;;;3.80;;
27893;SDS011;15240;50.812;4.792;2022-07-29T04:45:44;6.83;;;3.97;;
27893;SDS011;15240;50.812;4.792;2022-07-29T04:48:10;6.80;;;4.17;;
27893;SDS011;15240;50.812;4.792;2022-07-29T04:50:39;7.83;;;4.10;;
27893;SDS011;15240;50.812;4.792;2022-07-29T04:53:06;6.50;;;4.00;;
27893;SDS011;15240;50.812;4.792;2022-07-29T04:55:32;7.50;;;4.23;;
27893;SDS011;15240;50.812;4.792;2022-07-29T04:57:58;7.20;;;4.20;;
27893;SDS011;15240;50.812;4.792;2022-07-29T05:00:25;12.13;;;4.20;;
27893;SDS011;15240;50.812;4.792;2022-07-29T05:02:51;9.17;;;3.73;;
27893;SDS011;15240;50.812;4.792;2022-07-29T05:05:17;6.70;;;3.80;;
27893;SDS011;15240;50.812;4.792;2022-07-29T05:07:43;7.43;;;4.33;;
27893;SDS011;15240;50.812;4.792;2022-07-29T05:10:09;7.47;;;4.10;;
27893;SDS011;15240;50.812;4.792;2022-07-29T05:12:36;7.03;;;4.23;;
27893;SDS011;15240;50.812;4.792;2022-07-29T05:15:02;8.93;;;4.60;;
27893;SDS011;15240;50.812;4.792;2022-07-29T05:17:28;8.43;;;4.30;;
27893;SDS011;15240;50.812;4.792;2022-07-29T05:19:54;9.73;;;4.57;;
27893;SDS011;15240;50.812;4.792;2022-07-29T05:22:20;7.50;;;4.23;;
27893;SDS011;15240;50.812;4.792;2022-07-29T05:24:46;11.07;;;4.47;;
27893;SDS011;15240;50.812;4.792;2022-07-29T05:27:12;6.70;;;4.27;;
27893;SDS011;15240;50.812;4.792;2022-07-29T05:29:38;9.63;;;4.07;;
27893;SDS011;15240;50.812;4.792;2022-07-29T05:32:05;6.60;;;4.00;;
27893;SDS011;15240;50.812;4.792;2022-07-29T05:34:31;9.40;;;4.43;;
27893;SDS011;15240;50.812;4.792;2022-07-29T05:36:57;8.07;;;4.17;;
27893;SDS011;15240;50.812;4.792;2022-07-29T05:39:23;9.33;;;4.50;;
27893;SDS011;15240;50.812;4.792;2022-07-29T05:41:49;7.00;;;4.00;;
27893;SDS011;15240;50.812;4.792;2022-07-29T05:44:15;5.63;;;4.03;;
27893;SDS011;15240;50.812;4.792;2022-07-29T05:46:41;6.53;;;4.03;;
27893;SDS011;15240;50.812;4.792;2022-07-29T05:49:07;7.90;;;4.30;;
27893;SDS011;15240;50.812;4.792;2022-07-29T05:51:34;7.73;;;4.33;;
27893;SDS011;15240;50.812;4.792;2022-07-29T05:54:00;4.83;;;3.93;;
27893;SDS011;15240;50.812;4.792;2022-07-29T05:56:26;8.40;;;4.43;;
27893;SDS011;15240;50.812;4.792;2022-07-29T05:58:52;7.73;;;4.40;;
27893;SDS011;15240;50.812;4.792;2022-07-29T06:01:18;6.83;;;4.37;;
27893;SDS011;15240;50.812;4.792;2022-07-29T06:03:44;5.63;;;4.27;;
27893;SDS011;15240;50.812;4.792;2022-07-29T06:06:10;7.23;;;4.60;;
27893;SDS011;15240;50.812;4.792;2022-07-29T06:08:37;6.10;;;4.23;;
27893;SDS011;15240;50.812;4.792;2022-07-29T06:11:03;8.03;;;4.90;;
27893;SDS011;15240;50.812;4.792;2022-07-29T06:13:30;7.23;;;3.90;;
27893;SDS011;15240;50.812;4.792;2022-07-29T06:15:56;7.17;;;4.37;;
27893;SDS011;15240;50.812;4.792;2022-07-29T06:18:22;8.23;;;4.23;;
27893;SDS011;15240;50.812;4.792;2022-07-29T06:20:52;6.10;;;4.30;;
27893;SDS011;15240;50.812;4.792;2022-07-29T06:23:18;7.00;;;4.13;;
27893;SDS011;15240;50.812;4.792;2022-07-29T06:25:45;7.32;;;4.00;;
27893;SDS011;15240;50.812;4.792;2022-07-29T06:28:11;8.82;;;4.53;;
27893;SDS011;15240;50.812;4.792;2022-07-29T06:30:37;5.80;;;3.28;;
27893;SDS011;15240;50.812;4.792;2022-07-29T06:33:04;6.07;;;3.88;;
27893;SDS011;15240;50.812;4.792;2022-07-29T06:35:30;5.93;;;3.55;;
27893;SDS011;15240;50.812;4.792;2022-07-29T06:37:56;4.25;;;3.72;;
27893;SDS011;15240;50.812;4.792;2022-07-29T06:40:22;5.57;;;3.65;;
27893;SDS011;15240;50.812;4.792;2022-07-29T06:43:06;8.30;;;3.53;;
27893;SDS011;15240;50.812;4.792;2022-07-29T06:45:35;6.75;;;3.72;;
27893;SDS011;15240;50.812;4.792;2022-07-29T06:48:03;5.32;;;3.15;;
27893;SDS011;15240;50.812;4.792;2022-07-29T06:50:29;6.00;;;3.50;;
27893;SDS011;15240;50.812;4.792;2022-07-29T06:52:55;6.35;;;3.60;;
27893;SDS011;15240;50.812;4.792;2022-07-29T06:55:21;6.80;;;3.50;;
27893;SDS011;15240;50.812;4.792;2022-07-29T06:57:47;5.30;;;3.40;;
27893;SDS011;15240;50.812;4.792;2022-07-29T07:00:13;6.45;;;3.40;;
27893;SDS011;15240;50.812;4.792;2022-07-29T07:02:40;6.32;;;3.60;;
27893;SDS011;15240;50.812;4.792;2022-07-29T07:05:06;5.07;;;3.30;;
27893;SDS011;15240;50.812;4.792;2022-07-29T07:07:32;7.38;;;3.38;;
27893;SDS011;15240;50.812;4.792;2022-07-29T07:09:58;4.88;;;3.15;;
27893;SDS011;15240;50.812;4.792;2022-07-29T07:12:24;7.95;;;3.70;;
27893;SDS011;15240;50.812;4.792;2022-07-29T07:14:50;5.00;;;3.50;;
27893;SDS011;15240;50.812;4.792;2022-07-29T07:17:16;6.10;;;3.15;;
27893;SDS011;15240;50.812;4.792;2022-07-29T07:19:42;6.05;;;3.60;;
27893;SDS011;15240;50.812;4.792;2022-07-29T07:22:08;3.95;;;2.92;;
27893;SDS011;15240;50.812;4.792;2022-07-29T07:24:34;6.18;;;3.65;;
27893;SDS011;15240;50.812;4.792;2022-07-29T07:27:00;5.57;;;3.20;;
27893;SDS011;15240;50.812;4.792;2022-07-29T07:29:26;5.18;;;3.53;;
27893;SDS011;15240;50.812;4.792;2022-07-29T07:31:52;7.63;;;3.65;;
27893;SDS011;15240;50.812;4.792;2022-07-29T07:34:19;6.32;;;3.30;;
27893;SDS011;15240;50.812;4.792;2022-07-29T07:36:45;5.95;;;3.63;;
27893;SDS011;15240;50.812;4.792;2022-07-29T07:39:11;7.85;;;3.80;;
27893;SDS011;15240;50.812;4.792;2022-07-29T07:41:37;6.63;;;4.07;;
27893;SDS011;15240;50.812;4.792;2022-07-29T07:44:03;6.88;;;3.28;;
27893;SDS011;15240;50.812;4.792;2022-07-29T07:46:29;6.45;;;3.30;;
27893;SDS011;15240;50.812;4.792;2022-07-29T07:48:55;5.50;;;3.20;;
27893;SDS011;15240;50.812;4.792;2022-07-29T07:51:21;5.97;;;3.33;;
27893;SDS011;15240;50.812;4.792;2022-07-29T07:53:47;5.95;;;2.88;;
27893;SDS011;15240;50.812;4.792;2022-07-29T07:56:15;8.60;;;3.15;;
27893;SDS011;15240;50.812;4.792;2022-07-29T07:58:41;6.30;;;3.58;;
27893;SDS011;15240;50.812;4.792;2022-07-29T08:01:08;6.07;;;3.30;;
27893;SDS011;15240;50.812;4.792;2022-07-29T08:03:34;5.80;;;3.03;;
27893;SDS011;15240;50.812;4.792;2022-07-29T08:06:00;5.53;;;2.80;;
27893;SDS011;15240;50.812;4.792;2022-07-29T08:08:26;4.70;;;2.88;;
27893;SDS011;15240;50.812;4.792;2022-07-29T08:10:52;7.20;;;3.15;;
27893;SDS011;15240;50.812;4.792;2022-07-29T08:13:20;6.35;;;3.30;;
27893;SDS011;15240;50.812;4.792;2022-07-29T08:15:47;7.43;;;3.55;;
27893;SDS011;15240;50.812;4.792;2022-07-29T08:18:22;7.43;;;3.15;;
27893;SDS011;15240;50.812;4.792;2022-07-29T08:20:48;5.55;;;3.10;;
27893;SDS011;15240;50.812;4.792;2022-07-29T08:23:14;6.22;;;3.67;;
27893;SDS011;15240;50.812;4.792;2022-07-29T08:25:40;5.20;;;3.58;;
27893;SDS011;15240;50.812;4.792;2022-07-29T08:28:07;8.85;;;3.30;;
27893;SDS011;15240;50.812;4.792;2022-07-29T08:30:33;5.10;;;3.20;;
27893;SDS011;15240;50.812;4.792;2022-07-29T08:33:00;7.10;;;3.45;;
27893;SDS011;15240;50.812;4.792;2022-07-29T08:35:26;5.50;;;3.50;;
27893;SDS011;15240;50.812;4.792;2022-07-29T08:37:52;6.93;;;3.40;;
27893;SDS011;15240;50.812;4.792;2022-07-29T08:40:21;6.43;;;3.40;;
27893;SDS011;15240;50.812;4.792;2022-07-29T08:42:48;5.65;;;3.00;;
27893;SDS011;15240;50.812;4.792;2022-07-29T08:45:14;7.68;;;3.22;;
27893;SDS011;15240;50.812;4.792;2022-07-29T08:47:41;6.82;;;2.97;;
27893;SDS011;15240;50.812;4.792;2022-07-29T08:50:08;6.50;;;3.55;;
27893;SDS011;15240;50.812;4.792;2022-07-29T08:52:39;5.93;;;3.15;;
27893;SDS011;15240;50.812;4.792;2022-07-29T08:55:06;5.78;;;3.17;;
27893;SDS011;15240;50.812;4.792;2022-07-29T08:57:33;5.18;;;3.00;;
27893;SDS011;15240;50.812;4.792;2022-07-29T09:00:00;6.55;;;3.10;;
27893;SDS011;15240;50.812;4.792;2022-07-29T09:02:27;5.07;;;2.90;;
27893;SDS011;15240;50.812;4.792;2022-07-29T09:04:53;6.22;;;2.95;;
27893;SDS011;15240;50.812;4.792;2022-07-29T09:07:19;4.50;;;2.70;;
27893;SDS011;15240;50.812;4.792;2022-07-29T09:09:46;7.70;;;2.80;;
27893;SDS011;15240;50.812;4.792;2022-07-29T09:12:12;6.00;;;2.40;;
27893;SDS011;15240;50.812;4.792;2022-07-29T09:14:39;4.32;;;2.97;;
27893;SDS011;15240;50.812;4.792;2022-07-29T09:17:05;7.28;;;3.50;;
27893;SDS011;15240;50.812;4.792;2022-07-29T09:19:32;4.50;;;3.08;;
27893;SDS011;15240;50.812;4.792;2022-07-29T09:22:04;4.93;;;2.60;;
27893;SDS011;15240;50.812;4.792;2022-07-29T09:24:41;11.30;;;7.43;;
27893;SDS011;15240;50.812;4.792;2022-07-29T09:27:08;8.57;;;3.50;;
27893;SDS011;15240;50.812;4.792;2022-07-29T09:29:35;4.22;;;2.72;;
27893;SDS011;15240;50.812;4.792;2022-07-29T09:32:02;6.03;;;3.00;;
27893;SDS011;15240;50.812;4.792;2022-07-29T09:34:31;6.25;;;2.80;;
27893;SDS011;15240;50.812;4.792;2022-07-29T09:36:57;6.63;;;2.67;;
27893;SDS011;15240;50.812;4.792;2022-07-29T09:39:36;5.25;;;2.65;;
27893;SDS011;15240;50.812;4.792;2022-07-29T09:42:05;5.63;;;3.17;;
27893;SDS011;15240;50.812;4.792;2022-07-29T09:44:47;5.97;;;2.20;;
27893;SDS011;15240;50.812;4.792;2022-07-29T09:47:14;5.32;;;2.40;;
27893;SDS011;15240;50.812;4.792;2022-07-29T09:49:51;6.25;;;2.10;;
27893;SDS011;15240;50.812;4.792;2022-07-29T09:52:17;5.28;;;2.10;;
27893;SDS011;15240;50.812;4.792;2022-07-29T09:54:43;4.40;;;2.35;;
27893;SDS011;15240;50.812;4.792;2022-07-29T09:57:21;4.55;;;2.17;;
27893;SDS011;15240;50.812;4.792;2022-07-29T10:02:43;4.22;;;2.17;;
27893;SDS011;15240;50.812;4.792;2022-07-29T10:05:22;3.03;;;2.30;;
27893;SDS011;15240;50.812;4.792;2022-07-29T10:07:52;4.18;;;2.50;;
27893;SDS011;15240;50.812;4.792;2022-07-29T10:10:20;3.38;;;2.45;;
27893;SDS011;15240;50.812;4.792;2022-07-29T10:12:50;5.18;;;2.15;;
27893;SDS011;15240;50.812;4.792;2022-07-29T10:15:17;4.60;;;2.65;;
27893;SDS011;15240;50.812;4.792;2022-07-29T10:17:43;4.50;;;2.53;;
27893;SDS011;15240;50.812;4.792;2022-07-29T10:20:10;3.22;;;2.40;;
27893;SDS011;15240;50.812;4.792;2022-07-29T10:22:36;5.85;;;2.20;;
27893;SDS011;15240;50.812;4.792;2022-07-29T10:25:02;6.88;;;2.80;;
27893;SDS011;15240;50.812;4.792;2022-07-29T10:27:28;3.75;;;2.10;;
27893;SDS011;15240;50.812;4.792;2022-07-29T10:29:54;4.90;;;2.38;;
27893;SDS011;15240;50.812;4.792;2022-07-29T10:43:20;4.18;;;2.50;;
27893;SDS011;15240;50.812;4.792;2022-07-29T10:45:48;3.67;;;2.25;;
27893;SDS011;15240;50.812;4.792;2022-07-29T10:48:15;6.00;;;2.83;;
27893;SDS011;15240;50.812;4.792;2022-07-29T10:51:00;5.28;;;2.85;;
27893;SDS011;15240;50.812;4.792;2022-07-29T10:53:50;6.97;;;2.50;;
27893;SDS011;15240;50.812;4.792;2022-07-29T10:56:27;7.15;;;2.60;;
27893;SDS011;15240;50.812;4.792;2022-07-29T11:01:38;6.15;;;2.95;;
27893;SDS011;15240;50.812;4.792;2022-07-29T11:04:04;4.85;;;2.65;;
27893;SDS011;15240;50.812;4.792;2022-07-29T11:07:06;6.97;;;2.70;;
27893;SDS011;15240;50.812;4.792;2022-07-29T11:09:32;5.95;;;2.40;;
27893;SDS011;15240;50.812;4.792;2022-07-29T11:11:58;4.63;;;2.28;;
27893;SDS011;15240;50.812;4.792;2022-07-29T11:17:09;6.13;;;2.67;;
27893;SDS011;15240;50.812;4.792;2022-07-29T11:19:35;4.72;;;2.65;;
27893;SDS011;15240;50.812;4.792;2022-07-29T11:22:03;4.13;;;2.20;;
27893;SDS011;15240;50.812;4.792;2022-07-29T11:24:33;5.28;;;2.60;;
27893;SDS011;15240;50.812;4.792;2022-07-29T11:27:07;4.03;;;2.33;;
27893;SDS011;15240;50.812;4.792;2022-07-29T11:29:34;3.70;;;2.70;;
27893;SDS011;15240;50.812;4.792;2022-07-29T11:32:08;6.38;;;3.40;;
27893;SDS011;15240;50.812;4.792;2022-07-29T11:34:34;6.13;;;2.65;;
27893;SDS011;15240;50.812;4.792;2022-07-29T11:39:35;9.70;;;2.70;;
27893;SDS011;15240;50.812;4.792;2022-07-29T11:47:25;5.80;;;2.00;;
27893;SDS011;15240;50.812;4.792;2022-07-29T11:49:52;4.05;;;1.95;;
27893;SDS011;15240;50.812;4.792;2022-07-29T11:52:19;4.47;;;2.70;;
27893;SDS011;15240;50.812;4.792;2022-07-29T11:54:47;7.20;;;2.60;;
27893;SDS011;15240;50.812;4.792;2022-07-29T11:57:13;3.55;;;2.40;;
27893;SDS011;15240;50.812;4.792;2022-07-29T11:59:40;5.63;;;2.63;;
27893;SDS011;15240;50.812;4.792;2022-07-29T12:02:07;6.55;;;2.30;;
27893;SDS011;15240;50.812;4.792;2022-07-29T12:04:33;2.88;;;2.05;;
27893;SDS011;15240;50.812;4.792;2022-07-29T12:06:59;5.07;;;2.17;;
27893;SDS011;15240;50.812;4.792;2022-07-29T12:09:26;5.45;;;2.78;;
27893;SDS011;15240;50.812;4.792;2022-07-29T12:11:58;4.13;;;2.10;;
27893;SDS011;15240;50.812;4.792;2022-07-29T12:14:28;3.63;;;2.30;;
27893;SDS011;15240;50.812;4.792;2022-07-29T12:16:54;5.65;;;2.70;;
27893;SDS011;15240;50.812;4.792;2022-07-29T12:19:20;5.63;;;2.50;;
27893;SDS011;15240;50.812;4.792;2022-07-29T12:21:47;5.65;;;2.38;;
27893;SDS011;15240;50.812;4.792;2022-07-29T12:24:13;6.22;;;2.33;;
27893;SDS011;15240;50.812;4.792;2022-07-29T12:26:49;5.50;;;2.10;;
27893;SDS011;15240;50.812;4.792;2022-07-29T12:29:16;4.47;;;2.40;;
27893;SDS011;15240;50.812;4.792;2022-07-29T12:31:42;5.35;;;2.70;;
27893;SDS011;15240;50.812;4.792;2022-07-29T12:34:09;5.45;;;2.20;;
27893;SDS011;15240;50.812;4.792;2022-07-29T12:36:36;8.57;;;2.83;;
27893;SDS011;15240;50.812;4.792;2022-07-29T12:39:02;4.97;;;2.33;;
27893;SDS011;15240;50.812;4.792;2022-07-29T12:41:29;6.15;;;2.08;;
27893;SDS011;15240;50.812;4.792;2022-07-29T12:43:55;3.72;;;2.28;;
27893;SDS011;15240;50.812;4.792;2022-07-29T12:46:22;4.50;;;2.00;;
27893;SDS011;15240;50.812;4.792;2022-07-29T12:48:50;4.63;;;2.40;;
27893;SDS011;15240;50.812;4.792;2022-07-29T12:51:29;4.47;;;2.47;;
27893;SDS011;15240;50.812;4.792;2022-07-29T12:56:31;7.53;;;2.30;;
27893;SDS011;15240;50.812;4.792;2022-07-29T12:58:57;6.82;;;2.35;;
27893;SDS011;15240;50.812;4.792;2022-07-29T13:01:23;4.38;;;2.30;;
27893;SDS011;15240;50.812;4.792;2022-07-29T13:03:56;4.90;;;2.00;;
27893;SDS011;15240;50.812;4.792;2022-07-29T13:08:58;6.25;;;2.42;;
27893;SDS011;15240;50.812;4.792;2022-07-29T13:11:32;4.57;;;2.00;;
27893;SDS011;15240;50.812;4.792;2022-07-29T13:13:58;5.57;;;2.10;;
27893;SDS011;15240;50.812;4.792;2022-07-29T13:16:24;5.85;;;2.30;;
27893;SDS011;15240;50.812;4.792;2022-07-29T13:19:02;4.03;;;2.20;;
27893;SDS011;15240;50.812;4.792;2022-07-29T13:21:28;6.28;;;2.03;;
27893;SDS011;15240;50.812;4.792;2022-07-29T13:23:54;5.53;;;2.40;;
27893;SDS011;15240;50.812;4.792;2022-07-29T13:26:20;6.80;;;2.58;;
27893;SDS011;15240;50.812;4.792;2022-07-29T13:28:46;4.50;;;2.10;;
27893;SDS011;15240;50.812;4.792;2022-07-29T13:31:12;6.20;;;2.20;;
27893;SDS011;15240;50.812;4.792;2022-07-29T13:33:38;6.25;;;2.10;;
27893;SDS011;15240;50.812;4.792;2022-07-29T13:36:04;5.60;;;2.22;;
27893;SDS011;15240;50.812;4.792;2022-07-29T13:38:30;4.83;;;2.30;;
27893;SDS011;15240;50.812;4.792;2022-07-29T13:40:56;3.85;;;1.90;;
27893;SDS011;15240;50.812;4.792;2022-07-29T13:43:22;6.03;;;2.30;;
27893;SDS011;15240;50.812;4.792;2022-07-29T13:45:48;4.00;;;2.08;;
27893;SDS011;15240;50.812;4.792;2022-07-29T13:48:14;4.32;;;2.00;;
27893;SDS011;15240;50.812;4.792;2022-07-29T13:50:40;5.95;;;1.80;;
27893;SDS011;15240;50.812;4.792;2022-07-29T13:53:07;6.97;;;2.03;;
27893;SDS011;15240;50.812;4.792;2022-07-29T13:55:33;4.68;;;2.00;;
27893;SDS011;15240;50.812;4.792;2022-07-29T13:57:59;6.50;;;2.38;;
27893;SDS011;15240;50.812;4.792;2022-07-29T14:00:25;5.22;;;2.47;;
27893;SDS011;15240;50.812;4.792;2022-07-29T14:02:51;2.58;;;1.85;;
27893;SDS011;15240;50.812;4.792;2022-07-29T14:05:17;4.60;;;2.05;;
27893;SDS011;15240;50.812;4.792;2022-07-29T14:07:43;5.72;;;2.10;;
27893;SDS011;15240;50.812;4.792;2022-07-29T14:10:09;5.88;;;2.00;;
27893;SDS011;15240;50.812;4.792;2022-07-29T14:12:35;4.28;;;1.90;;
27893;SDS011;15240;50.812;4.792;2022-07-29T14:15:02;4.97;;;1.90;;
27893;SDS011;15240;50.812;4.792;2022-07-29T14:17:28;5.68;;;2.00;;
27893;SDS011;15240;50.812;4.792;2022-07-29T14:19:54;5.40;;;2.10;;
27893;SDS011;15240;50.812;4.792;2022-07-29T14:22:20;3.33;;;1.80;;
27893;SDS011;15240;50.812;4.792;2022-07-29T14:24:46;5.57;;;2.33;;
27893;SDS011;15240;50.812;4.792;2022-07-29T14:27:12;3.92;;;2.13;;
27893;SDS011;15240;50.812;4.792;2022-07-29T14:29:38;3.05;;;2.00;;
27893;SDS011;15240;50.812;4.792;2022-07-29T14:32:08;4.60;;;2.00;;
27893;SDS011;15240;50.812;4.792;2022-07-29T14:34:35;4.45;;;2.40;;
27893;SDS011;15240;50.812;4.792;2022-07-29T14:37:01;5.68;;;2.50;;
27893;SDS011;15240;50.812;4.792;2022-07-29T14:39:30;5.00;;;2.50;;
27893;SDS011;15240;50.812;4.792;2022-07-29T14:41:56;5.95;;;2.40;;
27893;SDS011;15240;50.812;4.792;2022-07-29T14:44:22;11.45;;;2.22;;
27893;SDS011;15240;50.812;4.792;2022-07-29T14:46:49;6.75;;;2.30;;
27893;SDS011;15240;50.812;4.792;2022-07-29T14:49:15;6.40;;;2.47;;
27893;SDS011;15240;50.812;4.792;2022-07-29T14:51:41;7.30;;;2.30;;
27893;SDS011;15240;50.812;4.792;2022-07-29T14:54:07;7.95;;;2.83;;
27893;SDS011;15240;50.812;4.792;2022-07-29T14:56:33;8.52;;;3.15;;
27893;SDS011;15240;50.812;4.792;2022-07-29T14:58:59;5.97;;;2.90;;
27893;SDS011;15240;50.812;4.792;2022-07-29T15:01:25;6.68;;;3.13;;
27893;SDS011;15240;50.812;4.792;2022-07-29T15:03:51;8.35;;;4.32;;
27893;SDS011;15240;50.812;4.792;2022-07-29T15:06:17;7.00;;;4.00;;
27893;SDS011;15240;50.812;4.792;2022-07-29T15:08:43;8.00;;;4.10;;
27893;SDS011;15240;50.812;4.792;2022-07-29T15:11:09;5.07;;;3.55;;
27893;SDS011;15240;50.812;4.792;2022-07-29T15:13:35;9.68;;;3.75;;
27893;SDS011;15240;50.812;4.792;2022-07-29T15:16:02;9.25;;;4.35;;
27893;SDS011;15240;50.812;4.792;2022-07-29T15:18:28;7.47;;;4.03;;
27893;SDS011;15240;50.812;4.792;2022-07-29T15:20:54;7.50;;;4.15;;
27893;SDS011;15240;50.812;4.792;2022-07-29T15:23:20;5.05;;;3.40;;
27893;SDS011;15240;50.812;4.792;2022-07-29T15:25:46;6.20;;;3.88;;
27893;SDS011;15240;50.812;4.792;2022-07-29T15:28:12;5.68;;;3.63;;
27893;SDS011;15240;50.812;4.792;2022-07-29T15:30:38;7.38;;;3.97;;